createdAt,value
2023-05-11T00:02:47.808Z,1.23
2023-05-11T00:06:31.995Z,1.50
2023-05-11T00:09:38.648Z,1.50
2023-05-11T00:12:42.154Z,1.70
2023-05-11T00:15:45.919Z,1.67
2023-05-11T00:18:52.977Z,1.67
2023-05-11T00:21:56.197Z,2.10
2023-05-11T00:25:00.316Z,1.70
2023-05-11T00:28:24.262Z,1.80
2023-05-11T00:31:30.430Z,1.30
2023-05-11T00:34:56.788Z,1.60
2023-05-11T00:38:02.501Z,1.73
2023-05-11T00:41:08.444Z,1.50
2023-05-11T00:44:13.761Z,1.80
2023-05-11T00:47:18.795Z,1.33
2023-05-11T00:50:23.227Z,1.65
2023-05-11T00:56:54.208Z,1.42
2023-05-11T00:59:57.784Z,1.60
2023-05-11T01:03:02.100Z,1.20
2023-05-11T01:06:17.308Z,1.73
2023-05-11T01:09:47.064Z,1.60
2023-05-11T01:13:05.752Z,1.48
2023-05-11T01:16:35.546Z,1.83
2023-05-11T01:19:43.695Z,1.70
2023-05-11T01:23:07.073Z,1.67
2023-05-11T01:26:43.908Z,1.50
2023-05-11T01:30:43.821Z,1.67
2023-05-11T01:33:59.076Z,1.35
2023-05-11T01:37:14.305Z,1.37
2023-05-11T01:40:21.928Z,1.40
2023-05-11T01:43:28.344Z,1.35
2023-05-11T01:46:55.330Z,1.48
2023-05-11T01:50:09.011Z,1.50
2023-05-11T01:53:35.937Z,1.50
2023-05-11T02:00:08.860Z,1.05
2023-05-11T02:03:16.827Z,1.25
2023-05-11T02:06:22.982Z,1.35
2023-05-11T02:09:27.173Z,1.50
2023-05-11T02:12:37.088Z,1.45
2023-05-11T02:15:43.565Z,1.40
2023-05-11T02:18:49.348Z,1.70
2023-05-11T02:22:02.554Z,1.30
2023-05-11T02:25:09.711Z,1.48
2023-05-11T02:28:18.772Z,1.55
2023-05-11T02:31:30.303Z,1.62
2023-05-11T02:35:01.745Z,1.65
2023-05-11T02:38:06.466Z,1.55
2023-05-11T02:41:24.340Z,1.45
2023-05-11T02:45:05.542Z,1.87
2023-05-11T02:48:20.178Z,1.65
2023-05-11T02:51:38.329Z,1.70
2023-05-11T02:54:43.608Z,1.50
2023-05-11T02:57:49.581Z,1.65
2023-05-11T03:00:53.766Z,1.42
2023-05-11T03:03:59.075Z,1.45
2023-05-11T03:07:11.345Z,1.67
2023-05-11T03:10:15.388Z,1.73
2023-05-11T03:13:23.629Z,1.70
2023-05-11T03:16:30.405Z,1.58
2023-05-11T03:19:36.125Z,1.60
2023-05-11T03:22:40.981Z,1.87
2023-05-11T03:25:47.560Z,1.87
2023-05-11T03:29:17.193Z,1.60
2023-05-11T03:32:42.437Z,1.73
2023-05-11T03:35:51.368Z,1.50
2023-05-11T03:38:58.768Z,2.20
2023-05-11T03:42:04.369Z,1.80
2023-05-11T03:45:31.924Z,1.80
2023-05-11T03:48:41.080Z,1.92
2023-05-11T03:51:49.295Z,1.87
2023-05-11T03:54:56.844Z,2.10
2023-05-11T04:01:09.939Z,1.90
2023-05-11T04:04:14.082Z,2.47
2023-05-11T04:07:21.520Z,2.60
2023-05-11T04:10:27.974Z,2.30
2023-05-11T04:13:54.498Z,1.90
2023-05-11T04:20:24.316Z,1.67
2023-05-11T04:23:28.094Z,1.50
2023-05-11T04:29:41.029Z,1.87
2023-05-11T04:32:49.855Z,1.80
2023-05-11T04:35:55.032Z,1.58
2023-05-11T04:39:08.969Z,1.90
2023-05-11T04:42:14.433Z,1.50
2023-05-11T04:45:51.150Z,1.65
2023-05-11T04:49:15.167Z,1.67
2023-05-11T04:52:19.403Z,1.30
2023-05-11T04:55:46.196Z,1.62
2023-05-11T04:58:49.988Z,1.45
2023-05-11T05:02:13.839Z,1.48
2023-05-11T05:05:18.924Z,1.40
2023-05-11T05:08:23.865Z,1.23
2023-05-11T05:11:27.417Z,1.40
2023-05-11T05:14:52.915Z,1.65
2023-05-11T05:17:58.679Z,1.40
2023-05-11T05:21:14.654Z,1.60
2023-05-11T05:24:18.497Z,1.23
2023-05-11T05:27:42.801Z,1.60
2023-05-11T05:30:46.992Z,1.40
2023-05-11T05:33:52.264Z,1.70
2023-05-11T05:37:24.449Z,1.70
2023-05-11T05:40:30.000Z,1.57
2023-05-11T05:43:34.473Z,1.33
2023-05-11T05:46:38.609Z,1.20
2023-05-11T05:50:03.246Z,1.60
2023-05-11T05:53:07.960Z,1.37
2023-05-11T05:56:13.283Z,1.95
2023-05-11T05:59:21.965Z,1.45
2023-05-11T06:02:33.505Z,1.90
2023-05-11T06:05:47.968Z,2.03
2023-05-11T06:08:51.811Z,1.58
2023-05-11T06:11:58.255Z,1.60
2023-05-11T06:15:01.752Z,1.45
2023-05-11T06:18:06.762Z,1.92
2023-05-11T06:21:11.975Z,1.60
2023-05-11T06:24:23.880Z,1.50
2023-05-11T06:27:27.128Z,1.80
2023-05-11T06:30:31.914Z,2.03
2023-05-11T06:33:36.304Z,2.10
2023-05-11T06:36:41.903Z,1.98
2023-05-11T06:39:50.124Z,1.83
2023-05-11T06:42:53.364Z,1.70
2023-05-11T06:45:57.314Z,1.73
2023-05-11T06:49:02.112Z,1.80
2023-05-11T06:52:06.635Z,1.60
2023-05-11T06:55:15.155Z,1.90
2023-05-11T06:58:39.775Z,1.58
2023-05-11T07:01:45.618Z,1.60
2023-05-11T07:04:49.055Z,1.75
2023-05-11T07:07:53.904Z,1.80
2023-05-11T07:10:57.157Z,1.50
2023-05-11T07:14:01.004Z,1.60
2023-05-11T07:17:04.288Z,1.77
2023-05-11T07:20:08.497Z,1.70
2023-05-11T07:23:11.935Z,2.20
2023-05-11T07:26:15.730Z,1.70
2023-05-11T07:29:18.744Z,1.60
2023-05-11T07:32:22.488Z,1.50
2023-05-11T07:35:25.697Z,1.40
2023-05-11T07:38:30.768Z,1.58
2023-05-11T07:41:34.035Z,1.65
2023-05-11T07:44:37.759Z,1.75
2023-05-11T07:47:40.907Z,1.55
2023-05-11T07:50:46.215Z,1.62
2023-05-11T07:53:49.466Z,1.40
2023-05-11T07:56:52.757Z,1.60
2023-05-11T07:59:55.850Z,1.20
2023-05-11T08:03:17.057Z,1.70
2023-05-11T08:06:21.428Z,1.70
2023-05-11T08:09:24.727Z,1.50
2023-05-11T08:12:28.261Z,1.67
2023-05-11T08:15:54.151Z,1.50
2023-05-11T08:18:58.154Z,1.60
2023-05-11T08:22:01.886Z,1.48
2023-05-11T08:25:09.242Z,1.40
2023-05-11T08:28:13.452Z,1.60
2023-05-11T08:31:18.723Z,1.40
2023-05-11T08:34:26.066Z,1.60
2023-05-11T08:41:40.469Z,1.40
2023-05-11T08:45:07.293Z,1.40
2023-05-11T08:48:38.784Z,1.50
2023-05-11T08:51:45.284Z,1.37
2023-05-11T08:54:50.248Z,1.40
2023-05-11T08:57:58.779Z,1.35
2023-05-11T09:01:06.862Z,1.50
2023-05-11T09:04:11.289Z,1.70
2023-05-11T09:07:37.937Z,1.60
2023-05-11T09:11:05.373Z,1.50
2023-05-11T09:14:08.894Z,1.30
2023-05-11T09:17:16.997Z,1.37
2023-05-11T09:20:29.535Z,1.40
2023-05-11T09:23:37.264Z,1.17
2023-05-11T09:26:41.366Z,1.00
2023-05-11T09:29:51.891Z,1.15
2023-05-11T09:33:03.021Z,1.27
2023-05-11T09:36:07.890Z,0.93
2023-05-11T09:39:42.230Z,1.10
2023-05-11T09:42:53.089Z,1.10
2023-05-11T09:46:21.953Z,1.25
2023-05-11T09:49:47.183Z,1.00
2023-05-11T09:52:54.311Z,1.10
2023-05-11T09:56:04.509Z,1.40
2023-05-11T09:59:13.263Z,1.20
2023-05-11T10:02:31.622Z,1.08
2023-05-11T10:06:01.931Z,1.02
2023-05-11T10:09:47.770Z,1.15
2023-05-11T10:17:06.213Z,1.10
2023-05-11T10:20:11.295Z,1.40
2023-05-11T10:27:40.104Z,1.30
2023-05-11T10:30:46.888Z,1.48
2023-05-11T10:34:10.828Z,1.10
2023-05-11T10:37:31.010Z,1.25
2023-05-11T10:41:39.537Z,1.40
2023-05-11T10:45:24.802Z,1.40
2023-05-11T10:49:16.797Z,1.05
2023-05-11T10:53:02.392Z,1.15
2023-05-11T10:56:49.769Z,1.52
2023-05-11T11:00:31.264Z,1.00
2023-05-11T11:04:14.304Z,1.48
2023-05-11T11:07:35.436Z,1.30
2023-05-11T11:10:52.862Z,1.00
2023-05-11T11:14:58.766Z,1.00
2023-05-11T11:18:35.719Z,1.10
2023-05-11T11:22:05.713Z,1.10
2023-05-11T11:25:54.807Z,1.30
2023-05-11T11:29:17.128Z,1.10
2023-05-11T11:32:37.840Z,1.00
2023-05-11T11:35:57.353Z,1.10
2023-05-11T11:39:17.108Z,1.08
2023-05-11T11:42:48.434Z,1.33
2023-05-11T11:46:08.298Z,1.10
2023-05-11T11:49:38.687Z,1.05
2023-05-11T11:52:56.764Z,1.12
2023-05-11T11:56:23.657Z,1.10
2023-05-11T11:59:59.067Z,1.12
2023-05-11T12:03:23.362Z,0.98
2023-05-11T12:06:58.720Z,1.23
2023-05-11T12:10:29.817Z,0.95
2023-05-11T12:13:58.022Z,1.00
2023-05-11T12:17:28.381Z,1.00
2023-05-11T12:20:44.949Z,1.05
2023-05-11T12:24:04.438Z,1.00
2023-05-11T12:27:32.051Z,1.02
2023-05-11T12:31:06.770Z,1.35
2023-05-11T12:34:26.587Z,1.33
2023-05-11T12:38:11.637Z,1.10
2023-05-11T12:41:28.906Z,1.23
2023-05-11T12:44:48.052Z,1.10
2023-05-11T12:48:07.389Z,1.20
2023-05-11T12:52:08.021Z,1.17
2023-05-11T12:55:44.189Z,1.02
2023-05-11T12:59:33.764Z,1.17
2023-05-11T13:03:13.073Z,1.10
2023-05-11T13:06:40.001Z,0.98
2023-05-11T13:10:01.034Z,1.15
2023-05-11T13:13:34.833Z,1.17
2023-05-11T13:16:55.116Z,0.85
2023-05-11T13:20:33.287Z,1.17
2023-05-11T13:23:54.600Z,1.27
2023-05-11T13:27:11.940Z,1.10
2023-05-11T13:30:28.979Z,1.17
2023-05-11T13:33:52.200Z,1.10
2023-05-11T13:37:09.969Z,1.10
2023-05-11T13:40:45.889Z,1.95
2023-05-11T13:44:22.216Z,1.30
2023-05-11T13:47:51.350Z,1.37
2023-05-11T13:51:28.320Z,1.20
2023-05-11T13:55:01.864Z,1.27
2023-05-11T13:58:21.824Z,1.23
2023-05-11T14:01:42.385Z,1.20
2023-05-11T14:05:00.113Z,1.10
2023-05-11T14:08:21.959Z,1.20
2023-05-11T14:11:39.726Z,0.90
2023-05-11T14:15:01.197Z,0.90
2023-05-11T14:18:18.114Z,1.10
2023-05-11T14:21:35.568Z,1.10
2023-05-11T14:24:43.888Z,0.90
2023-05-11T14:28:01.277Z,1.02
2023-05-11T14:31:21.596Z,1.10
2023-05-11T14:34:43.115Z,1.10
2023-05-11T14:38:00.099Z,1.15
2023-05-11T14:41:19.346Z,1.10
2023-05-11T14:44:55.481Z,0.98
2023-05-11T14:48:23.054Z,1.20
2023-05-11T14:51:40.114Z,1.00
2023-05-11T14:55:08.658Z,1.00
2023-05-11T14:58:26.038Z,1.00
2023-05-11T15:02:00.214Z,1.05
2023-05-11T15:05:17.133Z,1.00
2023-05-11T15:08:36.253Z,1.10
2023-05-11T15:12:05.622Z,1.20
2023-05-11T15:15:25.915Z,0.80
2023-05-11T15:18:45.607Z,1.10
2023-05-11T15:22:17.665Z,1.30
2023-05-11T15:25:37.505Z,1.20
2023-05-11T15:29:12.006Z,1.00
2023-05-11T15:36:13.272Z,1.62
2023-05-11T15:39:33.742Z,1.27
2023-05-11T15:43:12.043Z,1.00
2023-05-11T15:46:55.253Z,1.10
2023-05-11T15:50:32.241Z,1.15
2023-05-11T15:54:00.900Z,1.30
2023-05-11T15:57:36.785Z,1.00
2023-05-11T16:01:45.624Z,1.10
2023-05-11T16:05:34.879Z,1.42
2023-05-11T16:09:01.848Z,1.20
2023-05-11T16:12:35.854Z,0.93
2023-05-11T16:15:58.313Z,1.15
2023-05-11T16:19:18.282Z,1.42
2023-05-11T16:22:48.395Z,1.10
2023-05-11T16:26:40.259Z,1.20
2023-05-11T16:30:22.441Z,1.60
2023-05-11T16:33:57.471Z,1.77
2023-05-11T16:37:31.815Z,1.90
2023-05-11T16:40:50.235Z,1.85
2023-05-11T16:44:09.349Z,1.70
2023-05-11T16:47:52.902Z,1.50
2023-05-11T16:51:31.199Z,1.70
2023-05-11T16:58:39.428Z,1.50
2023-05-11T17:01:57.409Z,1.10
2023-05-11T17:05:24.286Z,1.45
2023-05-11T17:08:53.150Z,1.30
2023-05-11T17:12:10.678Z,1.95
2023-05-11T17:15:28.304Z,1.50
2023-05-11T17:18:51.324Z,1.40
2023-05-11T17:22:28.755Z,1.52
2023-05-11T17:25:48.371Z,1.50
2023-05-11T17:29:06.088Z,1.25
2023-05-11T17:32:35.597Z,1.23
2023-05-11T17:36:04.523Z,1.58
2023-05-11T17:39:24.915Z,1.62
2023-05-11T17:42:58.865Z,1.27
2023-05-11T17:46:30.807Z,1.25
2023-05-11T17:50:00.411Z,1.17
2023-05-11T17:53:36.458Z,1.23
2023-05-11T17:57:26.652Z,1.62
2023-05-11T18:00:51.968Z,1.05
2023-05-11T18:04:11.702Z,1.37
2023-05-11T18:07:31.842Z,1.20
2023-05-11T18:11:16.571Z,0.93
2023-05-11T18:15:03.247Z,1.33
2023-05-11T18:18:43.382Z,1.15
2023-05-11T18:22:23.187Z,1.17
2023-05-11T18:25:44.996Z,1.00
2023-05-11T18:29:22.952Z,1.40
2023-05-11T18:32:39.882Z,1.33
2023-05-11T18:36:12.653Z,0.93
2023-05-11T18:39:50.065Z,1.35
2023-05-11T18:42:58.049Z,1.33
2023-05-11T18:46:21.691Z,1.10
2023-05-11T18:50:30.295Z,1.20
2023-05-11T18:53:37.279Z,1.10
2023-05-11T18:57:08.115Z,1.20
2023-05-11T19:00:51.425Z,1.30
2023-05-11T19:04:36.539Z,1.20
2023-05-11T19:07:56.810Z,1.40
2023-05-11T19:11:26.016Z,1.30
2023-05-11T19:15:00.151Z,1.30
2023-05-11T19:18:35.912Z,1.27
2023-05-11T19:22:03.325Z,1.23
2023-05-11T19:25:46.130Z,1.40
2023-05-11T19:29:35.698Z,1.87
2023-05-11T19:33:12.952Z,1.80
2023-05-11T19:36:50.002Z,1.70
2023-05-11T19:44:19.188Z,1.70
2023-05-11T19:47:50.758Z,1.60
2023-05-11T19:51:26.382Z,1.33
2023-05-11T19:55:14.830Z,1.73
2023-05-11T19:58:47.452Z,1.73
2023-05-11T20:02:05.452Z,1.50
2023-05-11T20:05:35.867Z,1.90
2023-05-11T20:09:05.364Z,1.65
2023-05-11T20:12:44.128Z,1.67
2023-05-11T20:16:05.961Z,1.55
2023-05-11T20:19:38.802Z,1.40
2023-05-11T20:22:58.221Z,1.52
2023-05-11T20:26:17.938Z,1.17
2023-05-11T20:29:40.424Z,1.60
2023-05-11T20:39:50.642Z,1.50
2023-05-11T20:43:14.861Z,1.35
2023-05-11T20:46:33.060Z,1.55
2023-05-11T20:50:02.357Z,1.50
2023-05-11T20:53:38.543Z,1.58
2023-05-11T20:57:13.202Z,1.80
2023-05-11T21:00:32.668Z,1.55
2023-05-11T21:04:11.261Z,1.42
2023-05-11T21:07:54.703Z,1.60
2023-05-11T21:14:50.900Z,1.40
2023-05-11T21:18:36.289Z,1.27
2023-05-11T21:22:01.564Z,1.40
2023-05-11T21:25:26.927Z,2.00
2023-05-11T21:28:52.089Z,1.83
2023-05-11T21:35:30.418Z,1.40
2023-05-11T21:39:05.062Z,1.60
2023-05-11T21:42:42.279Z,1.45
2023-05-11T21:49:19.304Z,1.42
2023-05-11T21:52:46.904Z,1.30
2023-05-11T21:59:26.771Z,1.37
2023-05-11T22:02:47.441Z,1.35
2023-05-11T22:06:04.445Z,1.50
2023-05-11T22:09:28.287Z,1.80
2023-05-11T22:12:47.716Z,1.85
2023-05-11T22:16:06.023Z,1.55
2023-05-11T22:19:37.925Z,1.50
2023-05-11T22:23:00.240Z,2.03
2023-05-11T22:26:27.043Z,1.35
2023-05-11T22:30:12.359Z,1.25
2023-05-11T22:33:37.580Z,2.17
2023-05-11T22:36:55.246Z,1.52
2023-05-11T22:40:24.906Z,1.65
2023-05-11T22:43:51.007Z,1.55
2023-05-11T22:47:08.402Z,1.92
2023-05-11T22:50:36.275Z,1.60
2023-05-11T22:54:08.746Z,1.77
2023-05-11T22:57:37.262Z,1.60
2023-05-11T23:01:04.050Z,1.55
2023-05-11T23:04:39.891Z,1.92
2023-05-11T23:08:17.071Z,1.80
2023-05-11T23:11:44.366Z,1.70
2023-05-11T23:15:21.442Z,1.87
2023-05-11T23:18:56.148Z,1.75
2023-05-11T23:22:42.304Z,2.08
2023-05-11T23:26:10.088Z,1.98
2023-05-11T23:29:37.377Z,2.03
2023-05-11T23:36:23.292Z,1.77
2023-05-11T23:39:42.749Z,2.15
2023-05-11T23:43:00.479Z,1.65
2023-05-11T23:46:18.113Z,1.83
2023-05-11T23:49:47.012Z,1.45
2023-05-11T23:56:44.709Z,1.60
